createdAt,value
2019-04-01T00:01:58.351Z,9.10
2019-04-01T00:04:28.037Z,9.10
2019-04-01T00:06:57.695Z,8.60
2019-04-01T00:09:27.476Z,8.60
2019-04-01T00:11:57.121Z,8.70
2019-04-01T00:14:26.752Z,8.60
2019-04-01T00:16:56.400Z,8.50
2019-04-01T00:19:26.037Z,8.60
2019-04-01T00:21:55.681Z,8.50
2019-04-01T00:24:25.313Z,8.70
2019-04-01T00:26:59.435Z,8.90
2019-04-01T00:29:29.056Z,8.30
2019-04-01T00:31:58.700Z,8.30
2019-04-01T00:34:28.392Z,8.70
2019-04-01T00:36:58.042Z,9.00
2019-04-01T00:39:27.724Z,9.10
2019-04-01T00:42:04.789Z,9.00
2019-04-01T00:44:34.410Z,9.30
2019-04-01T00:47:04.051Z,9.70
2019-04-01T00:49:33.724Z,9.50
2019-04-01T00:52:03.367Z,9.10
2019-04-01T00:54:32.994Z,9.00
2019-04-01T00:57:02.642Z,9.00
2019-04-01T00:59:33.880Z,9.00
2019-04-01T01:02:03.588Z,9.10
2019-04-01T01:04:33.208Z,9.00
2019-04-01T01:07:02.848Z,9.00
2019-04-01T01:09:32.596Z,9.00
2019-04-01T01:12:02.240Z,9.00
2019-04-01T01:14:31.860Z,9.10
2019-04-01T01:17:01.582Z,9.20
2019-04-01T01:19:31.384Z,9.50
2019-04-01T01:22:01.045Z,9.40
2019-04-01T01:24:32.506Z,9.70
2019-04-01T01:27:01.959Z,9.90
2019-04-01T01:29:31.737Z,10.10
2019-04-01T01:32:01.357Z,9.80
2019-04-01T01:34:31.000Z,9.70
2019-04-01T01:37:00.628Z,9.50
2019-04-01T01:39:30.271Z,9.70
2019-04-01T01:41:59.888Z,9.50
2019-04-01T01:44:29.531Z,9.20
2019-04-01T01:46:59.156Z,9.30
2019-04-01T01:49:28.941Z,9.70
2019-04-01T01:51:58.564Z,9.90
2019-04-01T01:54:28.376Z,9.80
2019-04-01T01:56:57.998Z,9.70
2019-04-01T01:59:27.712Z,9.90
2019-04-01T02:01:57.342Z,9.90
2019-04-01T02:04:27.008Z,9.80
2019-04-01T02:06:56.636Z,9.80
2019-04-01T02:09:26.276Z,10.00
2019-04-01T02:11:55.896Z,9.80
2019-04-01T02:14:25.542Z,9.80
2019-04-01T02:16:55.160Z,9.90
2019-04-01T02:19:24.812Z,10.10
2019-04-01T02:21:54.439Z,10.10
2019-04-01T02:24:24.096Z,10.10
2019-04-01T02:26:53.804Z,10.10
2019-04-01T02:29:23.523Z,10.10
2019-04-01T02:31:53.149Z,10.00
2019-04-01T02:34:22.812Z,10.10
2019-04-01T02:36:52.424Z,9.90
2019-04-01T02:39:23.049Z,9.90
2019-04-01T02:41:52.677Z,9.90
2019-04-01T02:44:22.689Z,9.60
2019-04-01T02:46:52.318Z,9.80
2019-04-01T02:49:22.002Z,10.00
2019-04-01T02:51:51.631Z,10.10
2019-04-01T02:54:21.282Z,10.00
2019-04-01T02:56:50.912Z,10.10
2019-04-01T02:59:20.633Z,10.10
2019-04-01T03:01:50.265Z,10.20
2019-04-01T03:04:19.912Z,10.20
2019-04-01T03:06:49.529Z,10.10
2019-04-01T03:09:19.294Z,10.20
2019-04-01T03:11:48.895Z,10.10
2019-04-01T03:14:18.548Z,10.10
2019-04-01T03:16:48.177Z,10.00
2019-04-01T03:19:17.824Z,10.10
2019-04-01T03:21:47.457Z,10.10
2019-04-01T03:24:17.133Z,10.70
2019-04-01T03:26:46.750Z,10.90
2019-04-01T03:29:16.532Z,10.80
2019-04-01T03:31:46.177Z,10.60
2019-04-01T03:34:15.804Z,10.40
2019-04-01T03:36:45.456Z,10.30
2019-04-01T03:39:15.145Z,10.10
2019-04-01T03:41:44.798Z,10.10
2019-04-01T03:44:14.408Z,10.00
2019-04-01T03:46:44.068Z,10.10
2019-04-01T03:49:13.695Z,10.10
2019-04-01T03:51:43.336Z,10.00
2019-04-01T03:54:13.074Z,9.90
2019-04-01T03:56:42.718Z,10.00
2019-04-01T03:59:12.347Z,10.00
2019-04-01T04:01:41.995Z,9.80
2019-04-01T04:04:11.612Z,9.90
2019-04-01T04:06:41.423Z,9.90
2019-04-01T04:09:11.143Z,9.90
2019-04-01T04:11:40.789Z,9.90
2019-04-01T04:14:10.409Z,9.80
2019-04-01T04:16:40.053Z,9.80
2019-04-01T04:19:11.574Z,9.70
2019-04-01T04:21:41.233Z,9.60
2019-04-01T04:24:10.919Z,9.70
2019-04-01T04:26:40.566Z,9.60
2019-04-01T04:29:10.185Z,9.60
2019-04-01T04:31:39.902Z,9.50
2019-04-01T04:34:09.598Z,9.60
2019-04-01T04:36:39.235Z,9.60
2019-04-01T04:39:09.050Z,9.60
2019-04-01T04:41:38.696Z,9.50
2019-04-01T04:44:08.315Z,9.40
2019-04-01T04:46:37.960Z,9.40
2019-04-01T04:49:07.586Z,9.50
2019-04-01T04:51:37.223Z,9.30
2019-04-01T04:54:06.841Z,9.30
2019-04-01T04:56:36.488Z,9.30
2019-04-01T04:59:06.242Z,9.10
2019-04-01T05:01:35.895Z,9.10
2019-04-01T05:04:05.588Z,8.90
2019-04-01T05:06:47.317Z,8.90
2019-04-01T05:09:16.956Z,9.00
2019-04-01T05:11:46.603Z,9.00
2019-04-01T05:14:16.229Z,9.00
2019-04-01T05:16:45.877Z,8.90
2019-04-01T05:19:15.503Z,9.00
2019-04-01T05:21:46.084Z,8.70
2019-04-01T05:24:16.267Z,8.70
2019-04-01T05:26:47.520Z,8.80
2019-04-01T05:29:20.061Z,8.60
2019-04-01T05:31:52.144Z,8.70
2019-04-01T05:34:24.988Z,8.60
2019-04-01T05:36:54.626Z,8.30
2019-04-01T05:39:27.070Z,8.10
2019-04-01T05:41:56.860Z,8.20
2019-04-01T05:44:27.152Z,8.40
2019-04-01T05:46:56.800Z,8.00
2019-04-01T05:49:27.358Z,7.90
2019-04-01T05:51:57.062Z,7.90
2019-04-01T05:54:26.816Z,7.80
2019-04-01T05:56:56.627Z,8.00
2019-04-01T05:59:26.941Z,8.30
2019-04-01T06:01:56.593Z,7.90
2019-04-01T06:04:26.352Z,7.80
2019-04-01T06:06:56.133Z,8.00
2019-04-01T06:09:25.749Z,7.80
2019-04-01T06:11:55.669Z,7.90
2019-04-01T06:14:25.356Z,8.10
2019-04-01T06:16:55.363Z,8.30
2019-04-01T06:19:25.057Z,8.40
2019-04-01T06:21:54.867Z,8.50
2019-04-01T06:24:24.948Z,8.40
2019-04-01T06:26:54.943Z,8.50
2019-04-01T06:29:24.717Z,8.60
2019-04-01T06:31:54.328Z,8.80
2019-04-01T06:34:24.048Z,8.80
2019-04-01T06:36:53.679Z,8.90
2019-04-01T06:39:23.316Z,9.00
2019-04-01T06:41:53.075Z,9.20
2019-04-01T06:44:22.764Z,9.40
2019-04-01T06:46:52.448Z,9.30
2019-04-01T06:49:22.964Z,9.50
2019-04-01T06:51:52.654Z,9.70
2019-04-01T06:54:22.303Z,9.90
2019-04-01T06:56:52.000Z,10.10
2019-04-01T06:59:22.088Z,10.30
2019-04-01T07:01:52.192Z,10.30
2019-04-01T07:04:22.108Z,10.50
2019-04-01T07:06:52.477Z,10.40
2019-04-01T07:09:23.340Z,10.80
2019-04-01T07:11:52.964Z,10.80
2019-04-01T07:14:22.680Z,11.10
2019-04-01T07:16:52.451Z,11.30
2019-04-01T07:19:22.368Z,11.50
2019-04-01T07:21:54.463Z,11.40
2019-04-01T07:24:23.869Z,11.90
2019-04-01T07:26:53.568Z,12.00
2019-04-01T07:29:23.588Z,12.20
2019-04-01T07:31:53.216Z,12.40
2019-04-01T07:34:22.939Z,12.30
2019-04-01T07:36:52.731Z,12.30
2019-04-01T07:39:22.962Z,12.30
2019-04-01T07:41:52.658Z,12.10
2019-04-01T07:44:22.378Z,12.30
2019-04-01T07:46:51.996Z,12.50
2019-04-01T07:49:21.843Z,12.80
2019-04-01T07:51:51.458Z,12.70
2019-04-01T07:54:21.194Z,13.10
2019-04-01T07:56:51.165Z,13.20
2019-04-01T07:59:21.344Z,13.10
2019-04-01T08:01:52.835Z,13.50
2019-04-01T08:04:22.432Z,13.40
2019-04-01T08:06:52.201Z,13.50
2019-04-01T08:09:21.928Z,13.90
2019-04-01T08:11:51.633Z,13.60
2019-04-01T08:14:21.289Z,14.00
2019-04-01T08:16:51.191Z,14.00
2019-04-01T08:19:21.109Z,14.20
2019-04-01T08:21:52.475Z,14.20
2019-04-01T08:24:22.275Z,14.20
2019-04-01T08:26:52.057Z,13.90
2019-04-01T08:29:29.986Z,14.30
2019-04-01T08:31:53.088Z,14.60
2019-04-01T08:34:22.820Z,14.80
2019-04-01T08:36:52.796Z,14.80
2019-04-01T08:39:22.468Z,14.20
2019-04-01T08:41:52.110Z,14.90
2019-04-01T08:44:21.761Z,14.80
2019-04-01T08:46:51.464Z,15.00
2019-04-01T08:49:21.132Z,15.00
2019-04-01T08:51:50.750Z,15.30
2019-04-01T08:54:20.523Z,15.30
2019-04-01T08:56:50.164Z,15.50
2019-04-01T08:59:20.321Z,15.50
2019-04-01T09:01:49.952Z,15.80
2019-04-01T09:04:19.869Z,15.80
2019-04-01T09:06:49.509Z,16.30
2019-04-01T09:09:19.899Z,16.50
2019-04-01T09:11:50.169Z,16.10
2019-04-01T09:14:20.560Z,15.80
2019-04-01T09:16:51.130Z,16.20
2019-04-01T09:19:20.813Z,15.90
2019-04-01T09:21:50.413Z,15.40
2019-04-01T09:24:20.142Z,15.60
2019-04-01T09:26:49.788Z,15.30
2019-04-01T09:29:19.438Z,16.00
2019-04-01T09:31:49.068Z,15.70
2019-04-01T09:34:18.719Z,16.10
2019-04-01T09:37:00.441Z,16.20
2019-04-01T09:39:30.215Z,16.80
2019-04-01T09:41:59.811Z,16.40
2019-04-01T09:44:36.624Z,16.10
2019-04-01T09:47:00.724Z,16.60
2019-04-01T09:49:30.412Z,16.90
2019-04-01T09:52:03.650Z,16.90
2019-04-01T09:54:31.809Z,16.60
2019-04-01T09:57:16.112Z,17.00
2019-04-01T09:59:32.716Z,16.90
2019-04-01T10:02:02.373Z,17.30
2019-04-01T10:04:32.006Z,17.80
2019-04-01T10:07:01.653Z,16.80
2019-04-01T10:09:31.316Z,17.20
2019-04-01T10:12:01.038Z,17.30
2019-04-01T10:14:30.674Z,17.60
2019-04-01T10:17:00.320Z,17.30
2019-04-01T10:19:30.050Z,17.30
2019-04-01T10:21:59.697Z,17.40
2019-04-01T10:24:29.329Z,17.60
2019-04-01T10:26:58.984Z,17.80
2019-04-01T10:29:28.617Z,18.20
2019-04-01T10:31:58.341Z,18.30
2019-04-01T10:34:27.976Z,18.60
2019-04-01T10:36:57.637Z,19.30
2019-04-01T10:39:27.342Z,18.60
2019-04-01T10:41:56.996Z,18.10
2019-04-01T10:44:26.615Z,18.30
2019-04-01T10:46:56.340Z,18.10
2019-04-01T10:49:26.035Z,18.70
2019-04-01T10:51:55.736Z,18.20
2019-04-01T10:54:25.490Z,18.00
2019-04-01T10:56:55.124Z,17.90
2019-04-01T10:59:25.061Z,18.20
2019-04-01T11:01:54.726Z,18.70
2019-04-01T11:04:24.437Z,18.40
2019-04-01T11:06:54.258Z,18.00
2019-04-01T11:09:37.650Z,18.20
2019-04-01T11:11:55.946Z,18.30
2019-04-01T11:14:25.588Z,18.10
2019-04-01T11:16:55.319Z,18.80
2019-04-01T11:19:25.060Z,18.80
2019-04-01T11:21:54.708Z,19.30
2019-04-01T11:24:24.332Z,19.80
2019-04-01T11:26:53.980Z,20.20
2019-04-01T11:29:25.683Z,19.50
2019-04-01T11:31:54.949Z,19.90
2019-04-01T11:34:24.636Z,19.90
2019-04-01T11:36:54.722Z,19.30
2019-04-01T11:39:24.361Z,19.00
2019-04-01T11:41:53.999Z,18.90
2019-04-01T11:44:23.628Z,19.60
2019-04-01T11:46:53.581Z,18.90
2019-04-01T11:49:23.897Z,19.60
2019-04-01T11:51:53.545Z,19.10
2019-04-01T11:54:23.144Z,19.10
2019-04-01T11:56:52.796Z,19.20
2019-04-01T11:59:22.472Z,19.50
2019-04-01T12:01:52.127Z,20.00
2019-04-01T12:04:21.962Z,19.50
2019-04-01T12:06:51.880Z,19.70
2019-04-01T12:09:21.867Z,20.10
2019-04-01T12:11:51.513Z,20.10
2019-04-01T12:14:21.141Z,20.20
2019-04-01T12:16:50.794Z,20.50
2019-04-01T12:19:20.575Z,20.90
2019-04-01T12:21:50.284Z,21.10
2019-04-01T12:24:19.908Z,20.30
2019-04-01T12:26:49.560Z,20.10
2019-04-01T12:29:19.258Z,20.50
2019-04-01T12:31:48.925Z,21.40
2019-04-01T12:34:18.536Z,21.00
2019-04-01T12:36:48.379Z,21.40
2019-04-01T12:39:18.943Z,20.90
2019-04-01T12:41:48.590Z,20.60
2019-04-01T12:44:18.215Z,20.30
2019-04-01T12:46:47.875Z,20.60
2019-04-01T12:49:17.633Z,20.60
2019-04-01T12:51:47.959Z,21.10
2019-04-01T12:54:17.587Z,20.90
2019-04-01T12:56:47.224Z,20.80
2019-04-01T12:59:16.931Z,21.00
2019-04-01T13:01:46.561Z,20.70
2019-04-01T13:04:16.985Z,20.80
2019-04-01T13:06:47.447Z,21.20
2019-04-01T13:09:17.351Z,20.40
2019-04-01T13:11:46.980Z,20.30
2019-04-01T13:14:16.628Z,20.50
2019-04-01T13:16:46.330Z,20.70
2019-04-01T13:19:16.017Z,20.80
2019-04-01T13:21:45.605Z,20.60
2019-04-01T13:24:15.256Z,21.20
2019-04-01T13:26:44.889Z,20.80
2019-04-01T13:29:14.541Z,20.60
2019-04-01T13:31:44.173Z,20.90
2019-04-01T13:34:13.816Z,20.90
2019-04-01T13:36:43.440Z,20.50
2019-04-01T13:39:14.028Z,20.70
2019-04-01T13:41:44.423Z,21.00
2019-04-01T13:44:15.142Z,21.40
2019-04-01T13:46:48.198Z,21.40
2019-04-01T13:49:16.067Z,21.20
2019-04-01T13:51:45.701Z,21.50
2019-04-01T13:54:15.352Z,21.40
2019-04-01T13:56:44.982Z,21.50
2019-04-01T13:59:17.383Z,21.50
2019-04-01T14:01:45.948Z,21.90
2019-04-01T14:04:15.592Z,22.30
2019-04-01T14:06:45.287Z,22.40
2019-04-01T14:09:15.283Z,22.20
2019-04-01T14:11:45.009Z,21.80
2019-04-01T14:14:14.664Z,21.30
2019-04-01T14:16:44.293Z,20.70
2019-04-01T14:19:14.045Z,20.50
2019-04-01T14:21:43.668Z,20.60
2019-04-01T14:24:13.337Z,21.00
2019-04-01T14:26:42.973Z,20.90
2019-04-01T14:29:16.246Z,20.90
2019-04-01T14:31:43.926Z,20.80
2019-04-01T14:34:22.420Z,20.90
2019-04-01T14:36:44.892Z,20.20
2019-04-01T14:39:14.754Z,20.70
2019-04-01T14:41:44.380Z,20.70
2019-04-01T14:44:14.037Z,20.60
2019-04-01T14:46:43.671Z,20.80
2019-04-01T14:49:13.420Z,21.20
2019-04-01T14:51:43.045Z,21.40
2019-04-01T14:54:14.186Z,21.50
2019-04-01T14:56:56.281Z,21.40
2019-04-01T14:59:26.604Z,21.30
2019-04-01T15:01:56.302Z,20.90
2019-04-01T15:04:25.944Z,20.40
2019-04-01T15:06:55.578Z,21.00
2019-04-01T15:09:25.296Z,20.40
2019-04-01T15:11:54.925Z,20.40
2019-04-01T15:14:24.580Z,20.40
2019-04-01T15:16:54.212Z,20.50
2019-04-01T15:19:26.943Z,20.60
2019-04-01T15:21:56.823Z,20.60
2019-04-01T15:24:27.170Z,20.70
2019-04-01T15:26:57.624Z,20.70
2019-04-01T15:29:28.373Z,20.40
2019-04-01T15:31:58.791Z,20.40
2019-04-01T15:34:28.440Z,20.10
2019-04-01T15:36:58.070Z,20.10
2019-04-01T15:39:27.867Z,20.10
2019-04-01T15:41:57.493Z,20.10
2019-04-01T15:44:29.255Z,19.80
2019-04-01T15:46:58.391Z,19.80
2019-04-01T15:49:28.129Z,19.70
2019-04-01T15:51:57.761Z,19.70
2019-04-01T15:54:27.414Z,19.40
2019-04-01T15:56:57.440Z,19.50
2019-04-01T15:59:28.088Z,19.50
2019-04-01T16:01:58.211Z,19.30
2019-04-01T16:04:28.694Z,19.60
2019-04-01T16:06:59.935Z,19.50
2019-04-01T16:09:29.808Z,19.40
2019-04-01T16:11:59.430Z,19.00
2019-04-01T16:14:29.152Z,18.90
2019-04-01T16:16:58.809Z,19.00
2019-04-01T16:19:29.424Z,19.00
2019-04-01T16:21:59.113Z,18.80
2019-04-01T16:24:28.752Z,18.90
2019-04-01T16:26:58.406Z,18.50
2019-04-01T16:29:28.149Z,18.40
2019-04-01T16:31:58.123Z,18.40
2019-04-01T16:34:27.863Z,18.60
2019-04-01T16:36:57.513Z,18.50
2019-04-01T16:39:27.230Z,18.40
2019-04-01T16:41:56.877Z,18.30
2019-04-01T16:44:26.501Z,18.20
2019-04-01T16:46:56.156Z,18.20
2019-04-01T16:49:25.785Z,18.00
2019-04-01T16:51:55.439Z,18.10
2019-04-01T16:54:25.066Z,18.00
2019-04-01T16:56:54.717Z,17.90
2019-04-01T16:59:24.344Z,17.90
2019-04-01T17:01:54.000Z,17.80
2019-04-01T17:04:23.693Z,17.60
2019-04-01T17:06:53.346Z,17.50
2019-04-01T17:09:23.048Z,17.40
2019-04-01T17:11:54.303Z,17.50
2019-04-01T17:14:24.426Z,17.40
2019-04-01T17:16:54.702Z,17.30
2019-04-01T17:19:27.833Z,17.20
2019-04-01T17:21:57.360Z,17.20
2019-04-01T17:24:27.971Z,17.10
2019-04-01T17:27:06.340Z,17.00
2019-04-01T17:29:37.293Z,16.80
2019-04-01T17:32:07.010Z,16.70
2019-04-01T17:34:36.709Z,16.30
2019-04-01T17:37:06.505Z,16.40
2019-04-01T17:39:36.275Z,16.40
2019-04-01T17:42:06.173Z,16.60
2019-04-01T17:44:36.132Z,16.20
2019-04-01T17:47:06.318Z,16.10
2019-04-01T17:49:37.797Z,16.30
2019-04-01T17:52:07.445Z,16.10
2019-04-01T17:54:39.899Z,16.00
2019-04-01T17:57:08.416Z,16.00
2019-04-01T17:59:38.146Z,15.90
2019-04-01T18:02:12.518Z,15.90
2019-04-01T18:04:42.214Z,15.90
2019-04-01T18:07:11.865Z,15.70
2019-04-01T18:09:41.578Z,15.70
2019-04-01T18:12:11.307Z,15.40
2019-04-01T18:14:40.917Z,15.60
2019-04-01T18:17:12.000Z,15.50
2019-04-01T18:19:41.950Z,15.00
2019-04-01T18:22:11.600Z,15.00
2019-04-01T18:24:41.225Z,15.10
2019-04-01T18:27:10.891Z,15.10
2019-04-01T18:29:40.583Z,14.80
2019-04-01T18:32:10.244Z,14.50
2019-04-01T18:34:59.221Z,14.10
2019-04-01T18:37:28.876Z,13.80
2019-04-01T18:39:58.588Z,13.60
2019-04-01T18:42:31.334Z,13.90
2019-04-01T18:45:01.332Z,13.40
2019-04-01T18:47:30.992Z,13.60
2019-04-01T18:50:00.772Z,13.60
2019-04-01T18:52:30.425Z,13.30
2019-04-01T18:55:00.061Z,13.30
2019-04-01T18:57:29.706Z,12.90
2019-04-01T18:59:59.341Z,13.10
2019-04-01T19:02:29.072Z,12.70
2019-04-01T19:04:58.711Z,12.80
2019-04-01T19:07:28.348Z,12.80
2019-04-01T19:10:05.928Z,12.60
2019-04-01T19:12:29.396Z,12.50
2019-04-01T19:15:02.029Z,12.10
2019-04-01T19:17:30.308Z,12.30
2019-04-01T19:20:00.058Z,12.30
2019-04-01T19:22:29.687Z,12.10
2019-04-01T19:24:59.595Z,12.10
2019-04-01T19:27:29.259Z,12.20
2019-04-01T19:29:59.892Z,11.90
2019-04-01T19:32:29.544Z,11.90
2019-04-01T19:34:59.244Z,11.70
2019-04-01T19:37:28.887Z,11.70
2019-04-01T19:39:58.633Z,11.80
2019-04-01T19:42:28.280Z,11.60
2019-04-01T19:44:57.905Z,11.70
2019-04-01T19:47:27.628Z,11.90
2019-04-01T19:49:58.348Z,11.90
2019-04-01T19:52:27.997Z,11.60
2019-04-01T19:54:57.625Z,11.50
2019-04-01T19:57:28.025Z,11.60
2019-04-01T19:59:58.057Z,11.50
2019-04-01T20:02:27.840Z,11.60
2019-04-01T20:04:57.611Z,11.30
2019-04-01T20:07:27.232Z,11.30
2019-04-01T20:09:56.969Z,11.50
2019-04-01T20:12:26.592Z,11.50
2019-04-01T20:14:58.774Z,11.10
2019-04-01T20:17:27.510Z,11.40
2019-04-01T20:19:57.544Z,11.20
2019-04-01T20:22:27.181Z,11.20
2019-04-01T20:24:56.837Z,10.90
2019-04-01T20:27:26.533Z,11.10
2019-04-01T20:29:56.188Z,11.10
2019-04-01T20:32:25.813Z,11.00
2019-04-01T20:34:57.296Z,10.80
2019-04-01T20:37:26.747Z,10.90
2019-04-01T20:39:56.460Z,10.90
2019-04-01T20:42:26.089Z,11.00
2019-04-01T20:44:55.746Z,10.90
2019-04-01T20:47:25.368Z,11.00
2019-04-01T20:49:55.025Z,11.10
2019-04-01T20:52:24.652Z,11.20
2019-04-01T20:54:54.372Z,10.90
2019-04-01T20:57:24.010Z,10.80
2019-04-01T20:59:53.718Z,10.90
2019-04-01T21:02:23.348Z,11.00
2019-04-01T21:04:53.000Z,11.00
2019-04-01T21:07:22.644Z,11.10
2019-04-01T21:09:52.349Z,10.80
2019-04-01T21:12:21.976Z,10.90
2019-04-01T21:14:51.624Z,10.70
2019-04-01T21:17:21.326Z,10.50
2019-04-01T21:19:51.049Z,10.50
2019-04-01T21:22:20.668Z,10.40
2019-04-01T21:24:50.324Z,10.50
2019-04-01T21:27:19.952Z,10.60
2019-04-01T21:29:51.152Z,10.70
2019-04-01T21:32:21.036Z,10.50
2019-04-01T21:34:50.711Z,10.40
2019-04-01T21:37:20.336Z,10.40
2019-04-01T21:39:49.987Z,10.30
2019-04-01T21:42:19.617Z,10.30
2019-04-01T21:44:49.276Z,10.20
2019-04-01T21:47:18.903Z,9.80
2019-04-01T21:49:48.600Z,9.50
2019-04-01T21:52:18.221Z,9.40
2019-04-01T21:54:47.867Z,9.50
2019-04-01T21:57:19.303Z,9.60
2019-04-01T21:59:48.768Z,9.40
2019-04-01T22:02:18.405Z,9.40
2019-04-01T22:04:48.031Z,9.60
2019-04-01T22:07:17.725Z,9.70
2019-04-01T22:09:47.400Z,9.30
2019-04-01T22:12:17.019Z,9.30
2019-04-01T22:14:46.669Z,9.50
2019-04-01T22:17:17.087Z,9.60
2019-04-01T22:19:46.862Z,9.50
2019-04-01T22:22:16.500Z,9.40
2019-04-01T22:24:46.130Z,9.30
2019-04-01T22:27:15.820Z,9.10
2019-04-01T22:29:45.468Z,9.10
2019-04-01T22:32:15.093Z,8.80
2019-04-01T22:34:44.741Z,8.90
2019-04-01T22:37:26.436Z,9.00
2019-04-01T22:39:45.641Z,9.00
2019-04-01T22:42:15.265Z,8.90
2019-04-01T22:44:44.917Z,8.90
2019-04-01T22:47:16.351Z,8.80
2019-04-01T22:49:45.832Z,8.80
2019-04-01T22:52:15.457Z,8.70
2019-04-01T22:54:45.117Z,8.80
2019-04-01T22:57:14.732Z,8.80
2019-04-01T22:59:44.380Z,8.90
2019-04-01T23:02:14.008Z,8.90
2019-04-01T23:04:43.655Z,8.70
2019-04-01T23:07:13.272Z,8.70
2019-04-01T23:09:42.924Z,8.30
2019-04-01T23:12:12.548Z,8.30
2019-04-01T23:14:42.200Z,8.30
2019-04-01T23:17:11.821Z,8.40
2019-04-01T23:19:41.465Z,8.40
2019-04-01T23:22:11.085Z,8.40
2019-04-01T23:24:40.769Z,8.20
2019-04-01T23:27:10.385Z,8.40
2019-04-01T23:29:40.030Z,8.20
2019-04-01T23:32:09.662Z,8.10
2019-04-01T23:34:39.398Z,8.00
2019-04-01T23:37:09.281Z,8.00
2019-04-01T23:39:39.337Z,7.80
2019-04-01T23:42:08.960Z,7.90
2019-04-01T23:44:38.604Z,7.50
2019-04-01T23:47:08.248Z,7.10
2019-04-01T23:49:37.868Z,7.50
2019-04-01T23:52:07.517Z,7.50
2019-04-01T23:54:37.142Z,7.60
2019-04-01T23:57:06.796Z,7.90
2019-04-01T23:59:36.480Z,7.50
